createdAt,value
2023-11-23T00:01:15.563Z,4.03
2023-11-23T00:03:43.941Z,4.43
2023-11-23T00:06:12.410Z,3.90
2023-11-23T00:08:42.847Z,3.53
2023-11-23T00:11:11.558Z,4.20
2023-11-23T00:13:41.573Z,3.80
2023-11-23T00:16:10.365Z,3.77
2023-11-23T00:18:38.898Z,3.90
2023-11-23T00:21:07.355Z,3.93
2023-11-23T00:23:35.715Z,3.97
2023-11-23T00:26:04.901Z,3.73
2023-11-23T00:28:33.258Z,3.53
2023-11-23T00:31:02.755Z,3.67
2023-11-23T00:33:31.340Z,4.10
2023-11-23T00:36:03.994Z,4.57
2023-11-23T00:38:32.364Z,3.73
2023-11-23T00:41:01.820Z,3.30
2023-11-23T00:43:30.230Z,4.50
2023-11-23T00:45:58.616Z,4.53
2023-11-23T00:48:28.975Z,3.73
2023-11-23T00:50:57.414Z,4.27
2023-11-23T00:53:25.784Z,3.73
2023-11-23T00:55:58.152Z,4.20
2023-11-23T00:58:26.606Z,5.10
2023-11-23T01:00:55.015Z,4.33
2023-11-23T01:03:25.285Z,3.80
2023-11-23T01:05:55.344Z,4.77
2023-11-23T01:08:23.713Z,4.90
2023-11-23T01:10:54.144Z,4.80
2023-11-23T01:13:22.578Z,5.30
2023-11-23T01:15:50.912Z,3.87
2023-11-23T01:18:19.393Z,5.40
2023-11-23T01:20:47.832Z,4.90
2023-11-23T01:23:17.549Z,4.37
2023-11-23T01:25:46.655Z,5.03
2023-11-23T01:28:15.151Z,5.43
2023-11-23T01:30:43.581Z,5.03
2023-11-23T01:33:12.078Z,4.87
2023-11-23T01:35:40.539Z,5.70
2023-11-23T01:38:08.968Z,5.23
2023-11-23T01:40:38.974Z,4.93
2023-11-23T01:43:09.102Z,5.17
2023-11-23T01:45:37.561Z,4.97
2023-11-23T01:48:06.537Z,4.67
2023-11-23T01:50:35.948Z,5.27
2023-11-23T01:53:04.696Z,4.87
2023-11-23T01:55:33.344Z,5.63
2023-11-23T01:58:07.600Z,4.57
2023-11-23T02:00:36.064Z,6.57
2023-11-23T02:03:04.560Z,5.67
2023-11-23T02:05:33.037Z,6.67
2023-11-23T02:08:01.373Z,6.67
2023-11-23T02:10:29.939Z,6.50
2023-11-23T02:12:58.340Z,6.60
2023-11-23T02:15:27.868Z,6.70
2023-11-23T02:18:03.202Z,6.30
2023-11-23T02:20:32.051Z,6.13
2023-11-23T02:23:01.088Z,6.70
2023-11-23T02:25:30.873Z,7.10
2023-11-23T02:27:59.259Z,7.13
2023-11-23T02:30:27.751Z,7.23
2023-11-23T02:32:57.251Z,7.67
2023-11-23T02:35:25.816Z,8.23
2023-11-23T02:37:54.216Z,7.40
2023-11-23T02:40:22.839Z,8.07
2023-11-23T02:42:52.552Z,7.07
2023-11-23T02:45:21.170Z,8.53
2023-11-23T02:47:50.742Z,7.90
2023-11-23T02:50:19.898Z,8.63
2023-11-23T02:52:48.379Z,7.40
2023-11-23T02:55:16.827Z,8.40
2023-11-23T02:57:46.138Z,8.83
2023-11-23T03:00:15.269Z,8.70
2023-11-23T03:02:43.685Z,9.67
2023-11-23T03:05:12.536Z,8.87
2023-11-23T03:07:40.970Z,7.13
2023-11-23T03:10:10.707Z,8.27
2023-11-23T03:12:39.184Z,6.87
2023-11-23T03:15:08.002Z,9.90
2023-11-23T03:17:37.641Z,8.97
2023-11-23T03:20:06.418Z,8.97
2023-11-23T03:22:34.838Z,9.23
2023-11-23T03:25:03.210Z,9.10
2023-11-23T03:27:31.527Z,8.67
2023-11-23T03:29:59.596Z,9.57
2023-11-23T03:32:31.680Z,9.43
2023-11-23T03:35:01.901Z,8.47
2023-11-23T03:37:30.277Z,9.37
2023-11-23T03:40:00.171Z,10.13
2023-11-23T03:42:27.720Z,9.13
2023-11-23T03:44:56.086Z,9.33
2023-11-23T03:47:24.171Z,8.53
2023-11-23T03:49:53.091Z,9.23
2023-11-23T03:52:22.855Z,9.30
2023-11-23T03:54:51.813Z,8.90
2023-11-23T03:57:20.200Z,10.67
2023-11-23T03:59:48.650Z,9.63
2023-11-23T04:02:17.170Z,10.20
2023-11-23T04:04:45.597Z,10.40
2023-11-23T04:07:14.000Z,10.73
2023-11-23T04:09:43.779Z,10.27
2023-11-23T04:12:12.222Z,11.43
2023-11-23T04:14:40.738Z,10.40
2023-11-23T04:17:08.827Z,10.77
2023-11-23T04:19:37.168Z,10.07
2023-11-23T04:22:08.106Z,10.33
2023-11-23T04:24:37.295Z,10.43
2023-11-23T04:27:07.348Z,10.17
2023-11-23T04:29:35.723Z,9.97
2023-11-23T04:32:05.066Z,11.50
2023-11-23T04:34:33.438Z,9.93
2023-11-23T04:37:02.234Z,10.27
2023-11-23T04:39:30.627Z,11.37
2023-11-23T04:41:59.002Z,11.30
2023-11-23T04:44:29.035Z,10.13
2023-11-23T04:46:57.351Z,11.90
2023-11-23T04:49:25.766Z,10.90
2023-11-23T04:51:54.128Z,11.47
2023-11-23T04:54:22.514Z,11.43
2023-11-23T04:56:52.028Z,11.67
2023-11-23T04:59:20.131Z,11.33
2023-11-23T05:01:50.276Z,11.77
2023-11-23T05:04:18.455Z,12.20
2023-11-23T05:06:47.059Z,12.23
2023-11-23T05:09:15.538Z,12.17
2023-11-23T05:11:44.046Z,11.73
2023-11-23T05:14:13.603Z,12.63
2023-11-23T05:16:42.093Z,14.50
2023-11-23T05:19:11.526Z,13.00
2023-11-23T05:21:40.594Z,14.00
2023-11-23T05:24:09.557Z,14.53
2023-11-23T05:26:38.078Z,14.80
2023-11-23T05:29:07.398Z,12.77
2023-11-23T05:31:35.804Z,13.53
2023-11-23T05:34:04.631Z,14.80
2023-11-23T05:36:34.477Z,15.03
2023-11-23T05:39:02.918Z,15.13
2023-11-23T05:41:31.287Z,16.43
2023-11-23T05:43:59.985Z,15.83
2023-11-23T05:46:28.481Z,18.43
2023-11-23T05:48:57.464Z,17.00
2023-11-23T05:51:25.897Z,17.23
2023-11-23T05:53:55.669Z,16.73
2023-11-23T05:56:24.009Z,16.63
2023-11-23T05:58:52.378Z,18.87
2023-11-23T06:01:20.729Z,16.40
2023-11-23T06:03:49.416Z,18.73
2023-11-23T06:06:21.596Z,17.13
2023-11-23T06:08:50.480Z,17.40
2023-11-23T06:11:20.413Z,16.83
2023-11-23T06:13:48.814Z,15.80
2023-11-23T06:16:17.346Z,18.60
2023-11-23T06:18:45.971Z,18.10
2023-11-23T06:21:14.494Z,16.73
2023-11-23T06:23:42.907Z,15.90
2023-11-23T06:26:11.824Z,16.83
2023-11-23T06:28:42.512Z,16.53
2023-11-23T06:31:10.917Z,16.93
2023-11-23T06:33:39.375Z,17.13
2023-11-23T06:36:08.153Z,17.33
2023-11-23T06:38:37.224Z,17.53
2023-11-23T06:41:07.015Z,17.03
2023-11-23T06:43:36.302Z,17.97
2023-11-23T06:46:08.598Z,18.27
2023-11-23T06:48:37.139Z,15.33
2023-11-23T06:51:05.888Z,17.13
2023-11-23T06:53:34.546Z,16.73
2023-11-23T06:56:04.393Z,18.03
2023-11-23T06:58:32.914Z,17.70
2023-11-23T07:01:04.661Z,18.70
2023-11-23T07:03:34.948Z,16.47
2023-11-23T07:06:04.018Z,19.10
2023-11-23T07:08:32.676Z,19.33
2023-11-23T07:11:01.136Z,17.23
2023-11-23T07:13:29.731Z,17.70
2023-11-23T07:16:00.246Z,18.60
2023-11-23T07:18:28.718Z,18.07
2023-11-23T07:20:58.779Z,18.40
2023-11-23T07:23:27.584Z,19.80
2023-11-23T07:25:55.956Z,15.60
2023-11-23T07:28:26.549Z,17.40
2023-11-23T07:30:55.141Z,17.30
2023-11-23T07:33:26.148Z,16.50
2023-11-23T07:35:54.600Z,16.93
2023-11-23T07:38:24.505Z,16.63
2023-11-23T07:40:52.898Z,16.53
2023-11-23T07:43:21.420Z,16.97
2023-11-23T07:45:49.507Z,15.77
2023-11-23T07:48:17.956Z,15.83
2023-11-23T07:50:46.604Z,16.87
2023-11-23T07:53:16.147Z,17.67
2023-11-23T07:55:46.095Z,17.60
2023-11-23T07:58:14.345Z,17.90
2023-11-23T08:00:42.804Z,17.00
2023-11-23T08:03:12.026Z,18.23
2023-11-23T08:05:40.419Z,17.57
2023-11-23T08:08:08.598Z,17.87
2023-11-23T08:10:36.983Z,15.23
2023-11-23T08:13:06.939Z,14.07
2023-11-23T08:15:35.621Z,18.03
2023-11-23T08:18:08.004Z,15.90
2023-11-23T08:20:38.200Z,18.60
2023-11-23T08:23:08.916Z,18.63
2023-11-23T08:25:38.852Z,18.43
2023-11-23T08:28:08.681Z,17.90
2023-11-23T08:30:37.649Z,19.13
2023-11-23T08:33:07.032Z,18.43
2023-11-23T08:35:35.423Z,17.17
2023-11-23T08:38:04.255Z,18.97
2023-11-23T08:40:32.732Z,17.63
2023-11-23T08:43:01.097Z,18.33
2023-11-23T08:45:31.260Z,17.80
2023-11-23T08:47:59.718Z,18.57
2023-11-23T08:50:28.642Z,18.43
2023-11-23T08:52:58.904Z,18.50
2023-11-23T08:55:27.373Z,17.50
2023-11-23T08:57:55.842Z,16.23
2023-11-23T09:00:26.332Z,16.90
2023-11-23T09:02:56.315Z,18.37
2023-11-23T09:05:25.344Z,18.00
2023-11-23T09:07:54.848Z,17.20
2023-11-23T09:10:24.684Z,18.73
2023-11-23T09:12:53.108Z,16.50
2023-11-23T09:15:23.331Z,17.40
2023-11-23T09:17:52.999Z,17.10
2023-11-23T09:20:22.751Z,13.73
2023-11-23T09:22:51.087Z,16.53
2023-11-23T09:25:19.671Z,17.80
2023-11-23T09:27:47.831Z,15.53
2023-11-23T09:30:16.914Z,16.20
2023-11-23T09:32:45.400Z,17.17
2023-11-23T09:35:13.887Z,16.53
2023-11-23T09:37:43.402Z,16.37
2023-11-23T09:40:18.232Z,14.63
2023-11-23T09:42:49.611Z,13.70
2023-11-23T09:45:23.133Z,15.67
2023-11-23T09:47:54.686Z,15.27
2023-11-23T09:50:23.193Z,15.87
2023-11-23T09:52:53.580Z,15.87
2023-11-23T09:55:22.985Z,15.40
2023-11-23T09:57:51.404Z,15.67
2023-11-23T10:00:22.387Z,14.90
2023-11-23T10:02:51.543Z,14.33
2023-11-23T10:05:20.101Z,14.07
2023-11-23T10:07:50.862Z,15.00
2023-11-23T10:10:21.113Z,13.47
2023-11-23T10:12:50.476Z,14.47
2023-11-23T10:15:19.189Z,13.30
2023-11-23T10:17:47.643Z,14.20
2023-11-23T10:20:17.170Z,13.00
2023-11-23T10:22:46.173Z,11.70
2023-11-23T10:25:27.215Z,13.80
2023-11-23T10:27:59.668Z,14.33
2023-11-23T10:30:28.516Z,15.17
2023-11-23T10:32:59.017Z,12.60
2023-11-23T10:35:33.116Z,12.73
2023-11-23T10:38:01.597Z,13.00
2023-11-23T10:40:31.773Z,13.97
2023-11-23T10:43:02.446Z,14.67
2023-11-23T10:45:33.724Z,14.20
2023-11-23T10:48:05.143Z,14.73
2023-11-23T10:50:34.840Z,14.17
2023-11-23T10:53:04.397Z,14.43
2023-11-23T10:55:33.979Z,13.20
2023-11-23T10:58:06.066Z,14.73
2023-11-23T11:00:35.109Z,10.57
2023-11-23T11:03:07.927Z,15.10
2023-11-23T11:05:38.044Z,15.87
2023-11-23T11:08:08.639Z,14.67
2023-11-23T11:10:51.330Z,14.43
2023-11-23T11:13:21.518Z,14.97
2023-11-23T11:15:54.203Z,15.83
2023-11-23T11:18:27.157Z,13.30
2023-11-23T11:21:02.243Z,14.33
2023-11-23T11:23:46.181Z,14.70
2023-11-23T11:26:19.388Z,14.17
2023-11-23T11:28:55.344Z,12.87
2023-11-23T11:31:32.436Z,13.77
2023-11-23T11:34:03.146Z,12.53
2023-11-23T11:36:32.890Z,14.03
2023-11-23T11:39:02.547Z,13.93
2023-11-23T11:41:35.706Z,14.10
2023-11-23T11:44:06.444Z,12.90
2023-11-23T11:46:36.782Z,13.27
2023-11-23T11:49:05.232Z,12.00
2023-11-23T11:51:34.214Z,13.77
2023-11-23T11:54:02.774Z,13.00
2023-11-23T11:56:32.548Z,13.47
2023-11-23T11:59:04.502Z,13.27
2023-11-23T12:01:32.914Z,12.10
2023-11-23T12:04:03.079Z,14.23
2023-11-23T12:06:31.771Z,12.60
2023-11-23T12:09:00.360Z,12.37
2023-11-23T12:11:32.099Z,11.50
2023-11-23T12:14:02.812Z,11.57
2023-11-23T12:16:34.928Z,11.73
2023-11-23T12:19:03.448Z,12.63
2023-11-23T12:21:32.521Z,12.33
2023-11-23T12:24:01.758Z,12.23
2023-11-23T12:26:30.129Z,11.00
2023-11-23T12:28:58.137Z,12.43
2023-11-23T12:31:27.659Z,12.83
2023-11-23T12:33:56.164Z,12.10
2023-11-23T12:36:24.253Z,12.67
2023-11-23T12:38:52.610Z,13.97
2023-11-23T12:41:21.417Z,11.37
2023-11-23T12:43:50.311Z,11.63
2023-11-23T12:46:18.756Z,11.07
2023-11-23T12:48:48.417Z,11.80
2023-11-23T12:51:16.907Z,12.43
2023-11-23T12:53:45.300Z,11.53
2023-11-23T12:56:13.740Z,11.47
2023-11-23T12:58:41.974Z,10.43
2023-11-23T13:01:10.004Z,11.20
2023-11-23T13:03:38.342Z,11.83
2023-11-23T13:06:09.683Z,9.33
2023-11-23T13:08:38.104Z,10.37
2023-11-23T13:11:06.594Z,10.83
2023-11-23T13:13:34.801Z,10.73
2023-11-23T13:16:03.086Z,10.03
2023-11-23T13:18:47.449Z,10.43
2023-11-23T13:21:21.038Z,8.63
2023-11-23T13:23:50.291Z,9.17
2023-11-23T13:26:18.969Z,9.13
2023-11-23T13:28:48.672Z,9.80
2023-11-23T13:31:16.875Z,9.10
2023-11-23T13:33:45.303Z,9.77
2023-11-23T13:36:14.385Z,8.13
2023-11-23T13:38:43.833Z,9.83
2023-11-23T13:41:12.181Z,8.80
2023-11-23T13:43:40.542Z,9.60
2023-11-23T13:46:09.310Z,9.17
2023-11-23T13:48:37.776Z,8.90
2023-11-23T13:51:06.235Z,8.60
2023-11-23T13:53:34.771Z,8.70
2023-11-23T13:56:04.387Z,8.80
2023-11-23T13:58:32.715Z,8.23
2023-11-23T14:01:01.207Z,7.97
2023-11-23T14:03:31.811Z,8.57
2023-11-23T14:06:00.486Z,7.47
2023-11-23T14:08:28.924Z,7.60
2023-11-23T14:10:57.281Z,8.10
2023-11-23T14:13:26.790Z,7.87
2023-11-23T14:15:55.336Z,8.17
2023-11-23T14:18:23.497Z,8.37
2023-11-23T14:20:52.067Z,7.77
2023-11-23T14:23:20.478Z,8.47
2023-11-23T14:25:48.865Z,7.83
2023-11-23T14:28:17.337Z,8.00
2023-11-23T14:30:47.479Z,8.20
2023-11-23T14:33:16.795Z,8.10
2023-11-23T14:35:52.109Z,7.90
2023-11-23T14:38:21.231Z,7.83
2023-11-23T14:40:50.666Z,7.03
2023-11-23T14:43:19.946Z,7.33
2023-11-23T14:45:50.767Z,8.33
2023-11-23T14:48:19.820Z,7.50
2023-11-23T14:50:48.384Z,8.00
2023-11-23T14:53:16.732Z,8.33
2023-11-23T14:55:44.878Z,7.60
2023-11-23T14:58:15.139Z,7.70
2023-11-23T15:00:44.147Z,8.53
2023-11-23T15:03:14.277Z,8.17
2023-11-23T15:05:42.664Z,6.57
2023-11-23T15:08:11.020Z,7.87
2023-11-23T15:10:39.807Z,7.90
2023-11-23T15:13:08.329Z,8.03
2023-11-23T15:15:37.385Z,6.97
2023-11-23T15:18:06.253Z,7.27
2023-11-23T15:20:35.771Z,8.23
2023-11-23T15:23:09.393Z,8.23
2023-11-23T15:25:37.899Z,8.27
2023-11-23T15:28:08.766Z,8.53
2023-11-23T15:30:37.348Z,8.50
2023-11-23T15:33:06.053Z,8.20
2023-11-23T15:35:38.443Z,9.40
2023-11-23T15:38:07.189Z,9.97
2023-11-23T15:40:35.585Z,10.00
2023-11-23T15:43:04.201Z,10.60
2023-11-23T15:45:32.536Z,10.20
2023-11-23T15:48:00.978Z,8.43
2023-11-23T15:50:32.734Z,9.77
2023-11-23T15:53:02.488Z,10.23
2023-11-23T15:55:31.304Z,8.87
2023-11-23T15:57:59.707Z,10.83
2023-11-23T16:00:28.086Z,10.20
2023-11-23T16:02:58.250Z,11.90
2023-11-23T16:05:28.905Z,10.73
2023-11-23T16:07:58.201Z,11.23
2023-11-23T16:10:28.395Z,11.73
2023-11-23T16:12:56.944Z,12.20
2023-11-23T16:15:25.580Z,12.37
2023-11-23T16:17:55.633Z,13.00
2023-11-23T16:20:25.980Z,12.00
2023-11-23T16:22:54.004Z,12.63
2023-11-23T16:25:22.190Z,12.70
2023-11-23T16:27:51.596Z,12.57
2023-11-23T16:30:19.922Z,12.60
2023-11-23T16:32:48.351Z,11.80
2023-11-23T16:35:16.752Z,13.07
2023-11-23T16:37:45.334Z,11.80
2023-11-23T16:40:13.800Z,12.93
2023-11-23T16:42:43.165Z,12.77
2023-11-23T16:45:13.799Z,13.17
2023-11-23T16:47:43.156Z,12.90
2023-11-23T16:50:13.937Z,13.40
2023-11-23T16:52:42.258Z,14.23
2023-11-23T16:55:10.716Z,13.53
2023-11-23T16:57:40.373Z,14.53
2023-11-23T17:00:13.213Z,14.43
2023-11-23T17:02:43.319Z,12.43
2023-11-23T17:05:12.137Z,13.40
2023-11-23T17:07:40.518Z,13.90
2023-11-23T17:10:10.105Z,15.00
2023-11-23T17:12:38.805Z,13.77
2023-11-23T17:15:09.083Z,14.60
2023-11-23T17:17:37.306Z,14.43
2023-11-23T17:20:07.929Z,13.83
2023-11-23T17:22:37.624Z,13.27
2023-11-23T17:25:06.884Z,12.73
2023-11-23T17:27:35.539Z,13.83
2023-11-23T17:30:04.277Z,13.73
2023-11-23T17:32:33.624Z,14.83
2023-11-23T17:35:02.186Z,14.13
2023-11-23T17:37:31.864Z,13.87
2023-11-23T17:40:00.325Z,14.37
2023-11-23T17:42:28.589Z,14.03
2023-11-23T17:44:56.629Z,15.07
2023-11-23T17:47:27.115Z,12.90
2023-11-23T17:49:56.077Z,14.40
2023-11-23T17:52:24.658Z,12.97
2023-11-23T17:54:55.948Z,10.83
2023-11-23T17:57:24.669Z,14.40
2023-11-23T17:59:56.557Z,13.17
2023-11-23T18:02:26.549Z,12.17
2023-11-23T18:04:57.226Z,13.60
2023-11-23T18:07:25.717Z,11.87
2023-11-23T18:09:55.250Z,11.63
2023-11-23T18:12:23.686Z,12.37
2023-11-23T18:14:51.970Z,11.67
2023-11-23T18:17:20.360Z,12.97
2023-11-23T18:19:49.211Z,12.07
2023-11-23T18:22:18.003Z,12.43
2023-11-23T18:24:46.660Z,13.70
2023-11-23T18:27:16.150Z,12.60
2023-11-23T18:29:44.546Z,12.23
2023-11-23T18:32:14.909Z,9.67
2023-11-23T18:34:43.467Z,13.07
2023-11-23T18:37:13.310Z,12.93
2023-11-23T18:39:42.246Z,12.50
2023-11-23T18:42:12.634Z,14.20
2023-11-23T18:44:42.697Z,12.80
2023-11-23T18:47:11.132Z,13.43
2023-11-23T18:49:39.515Z,13.83
2023-11-23T18:52:09.948Z,11.67
2023-11-23T18:54:38.377Z,12.37
2023-11-23T18:57:06.937Z,13.43
2023-11-23T18:59:35.570Z,12.50
2023-11-23T19:02:06.158Z,12.43
2023-11-23T19:04:34.517Z,13.40
2023-11-23T19:07:03.143Z,14.20
2023-11-23T19:09:32.369Z,12.47
2023-11-23T19:12:00.790Z,11.60
2023-11-23T19:14:29.135Z,11.23
2023-11-23T19:16:57.932Z,10.53
2023-11-23T19:19:27.898Z,11.20
2023-11-23T19:21:56.554Z,11.57
2023-11-23T19:24:25.443Z,9.77
2023-11-23T19:26:54.053Z,9.00
2023-11-23T19:29:31.863Z,10.60
2023-11-23T19:32:08.674Z,9.40
2023-11-23T19:34:38.799Z,9.67
2023-11-23T19:37:07.545Z,10.23
2023-11-23T19:39:36.354Z,10.40
2023-11-23T19:42:06.197Z,10.83
2023-11-23T19:44:36.067Z,10.70
2023-11-23T19:47:04.621Z,11.00
2023-11-23T19:49:34.046Z,12.17
2023-11-23T19:52:06.092Z,11.67
2023-11-23T19:54:34.990Z,12.93
2023-11-23T19:57:03.605Z,12.43
2023-11-23T19:59:32.149Z,12.30
2023-11-23T20:02:01.835Z,11.67
2023-11-23T20:04:31.047Z,12.33
2023-11-23T20:07:00.098Z,12.90
2023-11-23T20:09:31.211Z,11.87
2023-11-23T20:12:00.406Z,12.90
2023-11-23T20:14:29.418Z,11.73
2023-11-23T20:16:58.854Z,13.47
2023-11-23T20:19:29.862Z,12.57
2023-11-23T20:21:58.794Z,12.87
2023-11-23T20:24:28.022Z,13.43
2023-11-23T20:26:58.375Z,12.87
2023-11-23T20:29:26.747Z,12.00
2023-11-23T20:31:56.114Z,10.97
2023-11-23T20:34:24.659Z,12.43
2023-11-23T20:36:53.230Z,11.37
2023-11-23T20:39:21.901Z,12.50
2023-11-23T20:41:51.279Z,12.63
2023-11-23T20:44:20.857Z,12.83
2023-11-23T20:46:49.761Z,14.73
2023-11-23T20:49:18.260Z,11.60
2023-11-23T20:51:46.789Z,11.43
2023-11-23T20:54:15.387Z,9.87
2023-11-23T20:56:44.694Z,11.70
2023-11-23T20:59:13.545Z,11.40
2023-11-23T21:01:43.985Z,13.23
2023-11-23T21:04:14.911Z,12.87
2023-11-23T21:06:55.905Z,14.93
2023-11-23T21:09:30.015Z,10.37
2023-11-23T21:12:03.332Z,3.63
2023-11-23T21:14:33.901Z,1.10
2023-11-23T21:17:03.444Z,1.00
2023-11-23T21:19:32.676Z,1.20
2023-11-23T21:22:01.191Z,0.70
2023-11-23T21:24:29.784Z,1.10
2023-11-23T21:26:58.238Z,0.80
2023-11-23T21:29:26.835Z,1.00
2023-11-23T21:31:55.856Z,0.70
2023-11-23T21:34:25.286Z,1.30
2023-11-23T21:36:53.805Z,1.00
2023-11-23T21:39:24.373Z,0.80
2023-11-23T21:41:52.663Z,0.80
2023-11-23T21:44:21.670Z,0.90
2023-11-23T21:46:49.968Z,0.70
2023-11-23T21:49:18.421Z,1.63
2023-11-23T21:51:48.373Z,1.00
2023-11-23T21:54:16.746Z,1.30
2023-11-23T21:56:45.337Z,1.70
2023-11-23T21:59:13.706Z,1.33
2023-11-23T22:01:42.324Z,1.33
2023-11-23T22:04:10.829Z,1.27
2023-11-23T22:06:39.248Z,1.60
2023-11-23T22:09:08.744Z,0.80
2023-11-23T22:11:36.836Z,1.80
2023-11-23T22:14:05.359Z,2.13
2023-11-23T22:16:33.969Z,1.60
2023-11-23T22:19:02.648Z,2.67
2023-11-23T22:21:31.348Z,2.20
2023-11-23T22:23:59.928Z,1.80
2023-11-23T22:26:30.191Z,2.00
2023-11-23T22:28:58.878Z,1.43
2023-11-23T22:31:28.424Z,1.37
2023-11-23T22:33:57.109Z,1.10
2023-11-23T22:36:25.883Z,1.70
2023-11-23T22:38:55.212Z,1.47
2023-11-23T22:41:24.810Z,1.20
2023-11-23T22:43:55.601Z,1.37
2023-11-23T22:46:24.352Z,1.57
2023-11-23T22:48:52.469Z,1.73
2023-11-23T22:51:19.867Z,1.83
2023-11-23T22:53:48.289Z,2.00
2023-11-23T22:56:17.033Z,1.43
2023-11-23T22:58:45.370Z,1.20
2023-11-23T23:01:15.607Z,1.90
2023-11-23T23:03:44.877Z,1.47
2023-11-23T23:06:13.658Z,1.90
2023-11-23T23:08:42.115Z,1.93
2023-11-23T23:11:11.189Z,1.73
2023-11-23T23:13:39.754Z,2.13
2023-11-23T23:16:08.361Z,2.10
2023-11-23T23:18:37.974Z,1.23
2023-11-23T23:21:06.370Z,1.40
2023-11-23T23:23:34.745Z,2.47
2023-11-23T23:26:03.819Z,2.07
2023-11-23T23:28:32.771Z,2.67
2023-11-23T23:31:01.640Z,1.90
2023-11-23T23:33:30.521Z,1.47
2023-11-23T23:36:00.293Z,1.77
2023-11-23T23:38:28.728Z,1.90
2023-11-23T23:40:57.086Z,1.70
2023-11-23T23:43:25.969Z,1.60
2023-11-23T23:45:54.511Z,2.10
2023-11-23T23:48:22.969Z,2.23
2023-11-23T23:50:53.982Z,1.63
2023-11-23T23:53:23.463Z,1.50
2023-11-23T23:55:52.339Z,1.93
2023-11-23T23:58:20.693Z,0.70
